Time;durP1;ratioP1;P1;durP2;ratioP2;P2;SDS_P1;SDS_P2;PMS_P1;PMS_P2;Temp;Humidity;BMP_temperature;BMP_pressure;BME280_temperature;BME280_humidity;BME280_pressure;Samples;Min_cycle;Max_cycle;Signal;HPM_P1;HPM_P2
2023/12/14 00:00:26;;;;;;;0.45;0.30;;;11.80;74.10;;;;;;2258580;55;20938;-73
2023/12/14 00:02:55;;;;;;;2.58;0.52;;;11.80;74.00;;;;;;2494132;55;21803;-72
2023/12/14 00:05:23;;;;;;;0.80;0.40;;;11.80;73.90;;;;;;2493961;55;21094;-72
2023/12/14 00:07:49;;;;;;;0.80;0.40;;;11.80;74.00;;;;;;2487397;55;21459;-72
2023/12/14 00:10:17;;;;;;;1.27;0.45;;;11.80;74.00;;;;;;2486899;55;20947;-72
2023/12/14 00:12:50;;;;;;;0.75;0.40;;;11.80;73.90;;;;;;2474538;55;20952;-71
2023/12/14 00:15:17;;;;;;;1.05;0.40;;;11.80;73.90;;;;;;2505613;54;20954;-72
2023/12/14 00:17:46;;;;;;;0.60;0.30;;;11.80;73.90;;;;;;2259361;56;21055;-72
2023/12/14 00:20:14;;;;;;;0.62;0.30;;;11.80;74.00;;;;;;2469306;54;21026;-71
2023/12/14 00:22:41;;;;;;;1.00;0.40;;;11.80;74.00;;;;;;2243832;55;21025;-73
2023/12/14 00:25:10;;;;;;;1.62;0.40;;;11.80;74.00;;;;;;2494119;55;21822;-72
2023/12/14 00:27:37;;;;;;;1.15;0.45;;;11.80;73.90;;;;;;2486369;55;20954;-72
2023/12/14 00:30:04;;;;;;;1.05;0.45;;;11.80;73.90;;;;;;2493364;55;21442;-72
2023/12/14 00:32:30;;;;;;;0.62;0.40;;;11.80;74.00;;;;;;2486183;55;20959;-72
2023/12/14 00:34:57;;;;;;;1.35;0.60;;;11.80;74.10;;;;;;2258724;55;20955;-72
2023/12/14 00:37:25;;;;;;;1.25;0.50;;;11.80;74.10;;;;;;2264444;56;20959;-72
2023/12/14 00:39:51;;;;;;;1.58;0.60;;;11.80;74.10;;;;;;2487147;55;22201;-72
2023/12/14 00:42:18;;;;;;;1.20;0.50;;;11.80;74.10;;;;;;2493267;54;21699;-71
2023/12/14 00:44:44;;;;;;;1.85;0.68;;;11.80;74.20;;;;;;2486634;55;20970;-72
2023/12/14 00:47:14;;;;;;;1.30;0.50;;;11.80;74.20;;;;;;2487306;55;21465;-73
2023/12/14 00:49:40;;;;;;;2.05;0.70;;;11.80;74.20;;;;;;2493230;55;21018;-72
2023/12/14 00:52:07;;;;;;;2.00;0.70;;;11.80;74.10;;;;;;2487261;55;20966;-73
2023/12/14 00:54:38;;;;;;;1.60;0.70;;;11.80;74.20;;;;;;2263406;56;20985;-72
2023/12/14 00:57:05;;;;;;;1.73;0.70;;;11.80;74.10;;;;;;2266357;55;21092;-73
2023/12/14 00:59:34;;;;;;;2.22;0.77;;;11.80;74.20;;;;;;2268499;56;21549;-71
2023/12/14 01:02:09;;;;;;;2.15;0.80;;;11.80;74.10;;;;;;2264365;56;21079;-72
2023/12/14 01:04:38;;;;;;;1.60;0.70;;;11.80;73.90;;;;;;2246908;56;21049;-73
2023/12/14 01:07:05;;;;;;;3.40;0.85;;;11.80;74.10;;;;;;2491365;55;20950;-72
2023/12/14 01:09:33;;;;;;;2.67;0.90;;;11.80;74.10;;;;;;2263965;56;21445;-72
2023/12/14 01:12:03;;;;;;;2.10;0.73;;;11.80;74.10;;;;;;2264515;56;20958;-72
2023/12/14 01:14:30;;;;;;;1.90;0.77;;;11.80;74.10;;;;;;2484675;55;21059;-72
2023/12/14 01:17:00;;;;;;;3.28;0.98;;;11.80;74.10;;;;;;2264215;55;20947;-72
2023/12/14 01:19:26;;;;;;;2.42;0.90;;;11.80;74.20;;;;;;2485896;55;21010;-72
2023/12/14 01:21:52;;;;;;;1.58;0.80;;;11.80;74.20;;;;;;2264175;55;20968;-72
2023/12/14 01:24:21;;;;;;;1.67;0.80;;;11.80;74.20;;;;;;2485870;55;21452;-72
2023/12/14 01:26:49;;;;;;;3.25;0.90;;;11.80;74.20;;;;;;2489934;55;21476;-72
2023/12/14 01:29:16;;;;;;;2.87;0.80;;;11.90;74.20;;;;;;2260665;55;20959;-72
2023/12/14 01:31:44;;;;;;;2.08;0.93;;;11.90;74.30;;;;;;2266432;56;21319;-72
2023/12/14 01:34:12;;;;;;;3.03;1.20;;;11.90;74.30;;;;;;2490697;55;21342;-72
2023/12/14 01:36:38;;;;;;;2.92;1.08;;;11.90;74.30;;;;;;2259733;55;21010;-72
2023/12/14 01:39:06;;;;;;;3.03;1.17;;;11.90;74.30;;;;;;2487136;55;21034;-73
2023/12/14 01:41:33;;;;;;;2.33;1.00;;;11.90;74.30;;;;;;2259070;55;21342;-72
2023/12/14 01:44:00;;;;;;;2.45;1.10;;;11.90;74.30;;;;;;2258893;56;21043;-72
2023/12/14 01:46:28;;;;;;;2.37;1.08;;;11.90;74.20;;;;;;2263469;56;20955;-72
2023/12/14 01:48:56;;;;;;;2.80;1.10;;;11.90;74.20;;;;;;2486920;55;21073;-72
2023/12/14 01:51:26;;;;;;;3.45;1.17;;;11.90;74.20;;;;;;2448746;54;20988;-73
2023/12/14 01:53:54;;;;;;;3.00;1.27;;;11.90;74.20;;;;;;2263728;56;21035;-72
2023/12/14 01:56:21;;;;;;;2.80;1.30;;;11.90;74.10;;;;;;2263656;56;21204;-72
2023/12/14 01:58:49;;;;;;;2.67;1.27;;;11.90;73.90;;;;;;2231334;55;20966;-72
2023/12/14 02:01:25;;;;;;;2.60;1.23;;;11.90;73.80;;;;;;2486411;55;21030;-71
2023/12/14 02:03:54;;;;;;;4.25;1.40;;;11.90;73.80;;;;;;2493611;55;21507;-72
2023/12/14 02:06:20;;;;;;;2.42;1.20;;;11.90;73.90;;;;;;2471125;55;21120;-73
2023/12/14 02:08:49;;;;;;;2.65;1.20;;;11.90;74.00;;;;;;2495155;54;21608;-72
2023/12/14 02:11:16;;;;;;;2.80;1.30;;;11.90;74.10;;;;;;2497518;54;20958;-73
2023/12/14 02:13:43;;;;;;;3.03;1.25;;;11.90;74.10;;;;;;2258046;56;20998;-72
2023/12/14 02:16:09;;;;;;;3.97;1.30;;;11.90;74.10;;;;;;2289518;56;20894;-72
2023/12/14 02:18:37;;;;;;;2.67;1.17;;;11.90;74.10;;;;;;2522916;54;20953;-73
2023/12/14 02:21:04;;;;;;;4.60;1.45;;;11.90;74.10;;;;;;2266733;56;20986;-72
2023/12/14 02:23:30;;;;;;;2.83;1.42;;;11.90;74.10;;;;;;2280265;56;21344;-72
2023/12/14 02:25:57;;;;;;;3.12;1.50;;;11.90;74.00;;;;;;2522966;54;20933;-72
2023/12/14 02:28:27;;;;;;;2.53;1.05;;;11.90;74.00;;;;;;2481533;54;21011;-71
2023/12/14 02:31:18;;;;;;;3.00;1.10;;;11.90;74.10;;;;;;2522843;54;20946;-72
2023/12/14 02:33:45;;;;;;;3.10;1.40;;;11.90;74.10;;;;;;2522909;54;20902;-72
2023/12/14 02:36:15;;;;;;;3.12;1.30;;;11.90;74.00;;;;;;2521908;54;20956;-72
2023/12/14 02:38:44;;;;;;;2.92;1.48;;;11.90;74.00;;;;;;2522361;54;21069;-72
2023/12/14 02:41:12;;;;;;;3.17;1.58;;;11.90;74.00;;;;;;2523509;54;20913;-72
2023/12/14 02:43:40;;;;;;;3.40;1.60;;;11.90;74.00;;;;;;2288071;56;20946;-73
2023/12/14 02:46:11;;;;;;;3.00;1.58;;;11.90;74.00;;;;;;2288674;56;21253;-71
2023/12/14 02:48:42;;;;;;;2.85;1.40;;;11.90;73.90;;;;;;2266836;56;20939;-72
2023/12/14 02:51:14;;;;;;;3.65;1.70;;;11.90;74.00;;;;;;2515069;54;20973;-72
2023/12/14 02:53:41;;;;;;;3.33;1.33;;;11.90;74.00;;;;;;2288463;56;21720;-72
2023/12/14 02:56:10;;;;;;;2.92;1.27;;;11.90;74.10;;;;;;2519986;54;20980;-72
2023/12/14 02:58:37;;;;;;;4.85;1.70;;;11.90;74.10;;;;;;2512567;54;20917;-73
2023/12/14 03:01:06;;;;;;;3.08;1.60;;;11.90;74.10;;;;;;2288836;56;20946;-72
2023/12/14 03:03:33;;;;;;;3.37;1.70;;;11.90;74.00;;;;;;2522301;54;20961;-73
2023/12/14 03:06:04;;;;;;;3.45;1.80;;;11.80;74.60;;;;;;2523564;54;20998;-72
2023/12/14 03:08:30;;;;;;;3.00;1.55;;;11.80;73.90;;;;;;2288543;56;21060;-73
2023/12/14 03:10:57;;;;;;;4.03;1.50;;;11.80;73.90;;;;;;2288239;56;20973;-71
2023/12/14 03:13:23;;;;;;;3.72;1.65;;;11.80;73.80;;;;;;2523516;54;20930;-73
2023/12/14 03:15:55;;;;;;;4.50;1.67;;;11.80;73.90;;;;;;2500681;54;21883;-72
2023/12/14 03:18:21;;;;;;;3.50;1.50;;;11.80;73.90;;;;;;2260741;55;21450;-73
2023/12/14 03:20:48;;;;;;;5.85;1.45;;;11.80;73.90;;;;;;2523278;54;21249;-72
2023/12/14 03:23:14;;;;;;;2.67;1.27;;;11.80;73.80;;;;;;2523340;54;20986;-71
2023/12/14 03:25:41;;;;;;;2.97;1.52;;;11.80;73.90;;;;;;2288320;56;20942;-72
2023/12/14 03:28:09;;;;;;;3.03;1.23;;;11.80;73.90;;;;;;2523697;54;20886;-73
2023/12/14 03:30:38;;;;;;;3.72;1.30;;;11.80;73.90;;;;;;2522818;54;20998;-72
2023/12/14 03:33:07;;;;;;;4.00;1.50;;;11.80;73.90;;;;;;2523693;54;20990;-71
2023/12/14 03:35:36;;;;;;;2.97;1.30;;;11.80;73.90;;;;;;2521370;54;20950;-72
2023/12/14 03:38:02;;;;;;;3.08;1.30;;;11.80;73.90;;;;;;2510256;54;20960;-72
2023/12/14 03:40:29;;;;;;;2.35;1.20;;;11.80;73.90;;;;;;2522467;54;22449;-72
2023/12/14 03:42:57;;;;;;;2.83;1.10;;;11.80;74.00;;;;;;2488144;54;20951;-72
2023/12/14 03:45:23;;;;;;;2.92;1.10;;;11.80;74.00;;;;;;2285735;56;20930;-71
2023/12/14 03:47:50;;;;;;;2.50;1.20;;;11.80;74.20;;;;;;2519368;54;21356;-71
2023/12/14 03:50:16;;;;;;;3.05;1.42;;;11.80;73.90;;;;;;2281244;56;21440;-72
2023/12/14 03:52:44;;;;;;;2.87;1.10;;;11.80;73.90;;;;;;2288578;56;21597;-71
2023/12/14 03:55:11;;;;;;;2.40;1.10;;;11.80;73.90;;;;;;2289044;56;20922;-73
2023/12/14 03:57:41;;;;;;;2.80;1.20;;;11.80;73.90;;;;;;2226945;56;21081;-72
2023/12/14 04:00:13;;;;;;;2.80;1.20;;;11.80;74.00;;;;;;2487663;55;21103;-72
2023/12/14 04:02:40;;;;;;;2.22;0.98;;;11.80;73.90;;;;;;2496164;54;20947;-72
2023/12/14 04:05:11;;;;;;;2.80;1.12;;;11.80;73.90;;;;;;2512962;54;20968;-71
2023/12/14 04:07:41;;;;;;;2.50;1.00;;;11.80;73.80;;;;;;2448859;55;20938;-72
2023/12/14 04:10:10;;;;;;;3.83;1.00;;;11.80;73.90;;;;;;2246133;56;21002;-72
2023/12/14 04:12:37;;;;;;;3.50;1.40;;;11.80;73.80;;;;;;2486790;55;21587;-72
2023/12/14 04:15:07;;;;;;;2.17;1.08;;;11.80;73.90;;;;;;2491264;55;20991;-72
2023/12/14 04:17:38;;;;;;;2.55;1.00;;;11.80;73.90;;;;;;2487893;55;21298;-72
2023/12/14 04:20:06;;;;;;;2.25;0.95;;;11.80;73.90;;;;;;2252787;55;21337;-72
2023/12/14 04:22:35;;;;;;;2.03;0.90;;;11.80;74.00;;;;;;2523019;54;20927;-72
2023/12/14 04:25:01;;;;;;;2.42;1.08;;;11.80;74.10;;;;;;2286629;56;21733;-72
2023/12/14 04:27:30;;;;;;;2.58;1.20;;;11.80;74.00;;;;;;2297037;56;21328;-71
2023/12/14 04:29:59;;;;;;;3.47;0.88;;;11.80;73.90;;;;;;2513596;54;21009;-72
2023/12/14 04:32:25;;;;;;;3.42;1.12;;;11.80;73.90;;;;;;2508470;54;21044;-72
2023/12/14 04:34:53;;;;;;;2.83;1.20;;;11.80;73.90;;;;;;2298576;56;21832;-72
2023/12/14 04:37:20;;;;;;;2.80;1.40;;;11.70;73.80;;;;;;2534663;54;21006;-72
2023/12/14 04:39:47;;;;;;;2.60;1.27;;;11.80;73.90;;;;;;2297783;56;20937;-72
2023/12/14 04:42:13;;;;;;;2.60;1.15;;;11.80;74.00;;;;;;2534477;54;20991;-72
2023/12/14 04:44:45;;;;;;;1.87;0.85;;;11.80;74.00;;;;;;2298014;55;21414;-72
2023/12/14 04:47:13;;;;;;;2.53;1.10;;;11.80;74.00;;;;;;2297574;56;21109;-71
2023/12/14 04:49:41;;;;;;;3.80;1.50;;;11.80;74.00;;;;;;2521983;54;20952;-72
2023/12/14 04:52:08;;;;;;;2.20;1.00;;;11.80;74.10;;;;;;2536854;54;20931;-72
2023/12/14 04:54:40;;;;;;;3.85;0.90;;;11.80;74.10;;;;;;2536518;54;20979;-72
2023/12/14 04:57:07;;;;;;;1.33;0.62;;;11.80;74.10;;;;;;2299608;56;21252;-73
2023/12/14 04:59:37;;;;;;;2.75;1.00;;;11.80;74.10;;;;;;2299165;56;20940;-71
2023/12/14 05:02:04;;;;;;;2.12;1.00;;;11.80;74.00;;;;;;2299685;55;20998;-72
2023/12/14 05:04:31;;;;;;;3.08;1.10;;;11.80;74.10;;;;;;2536506;54;20979;-72
2023/12/14 05:07:04;;;;;;;2.28;1.00;;;11.80;74.10;;;;;;2536786;54;21265;-72
2023/12/14 05:09:31;;;;;;;2.85;1.10;;;11.80;74.10;;;;;;2536076;54;21735;-72
2023/12/14 05:11:57;;;;;;;2.92;1.40;;;11.80;74.10;;;;;;2535401;54;21023;-72
2023/12/14 05:14:24;;;;;;;2.40;1.08;;;11.80;74.20;;;;;;2299154;56;20979;-71
2023/12/14 05:16:51;;;;;;;2.87;1.35;;;11.80;74.20;;;;;;2292362;56;21000;-71
2023/12/14 05:19:18;;;;;;;2.12;1.10;;;11.80;74.10;;;;;;2490792;54;21239;-71
2023/12/14 05:21:54;;;;;;;2.75;1.15;;;11.80;74.00;;;;;;2533803;54;20944;-72
2023/12/14 05:24:21;;;;;;;2.90;1.48;;;11.80;73.80;;;;;;2533475;54;21323;-72
2023/12/14 05:26:49;;;;;;;2.08;0.93;;;11.80;73.80;;;;;;2532184;54;21110;-72
2023/12/14 05:29:17;;;;;;;2.95;1.33;;;11.80;73.80;;;;;;2531946;54;20959;-72
2023/12/14 05:31:43;;;;;;;2.78;1.40;;;11.80;73.80;;;;;;2531397;54;21010;-72
2023/12/14 05:34:10;;;;;;;2.50;1.30;;;11.70;73.80;;;;;;2294574;56;21401;-72
2023/12/14 05:36:36;;;;;;;3.78;1.37;;;11.80;74.20;;;;;;2530695;54;20924;-72
2023/12/14 05:39:04;;;;;;;2.78;1.25;;;11.80;74.10;;;;;;2530994;54;21776;-72
2023/12/14 05:41:30;;;;;;;4.10;1.25;;;11.80;74.10;;;;;;2530719;54;20983;-71
2023/12/14 05:43:59;;;;;;;3.65;1.25;;;11.80;74.10;;;;;;2294361;56;20963;-71
2023/12/14 05:46:32;;;;;;;2.37;1.08;;;11.80;74.20;;;;;;2531650;54;20959;-73
2023/12/14 05:48:59;;;;;;;2.50;1.02;;;11.80;74.10;;;;;;2536032;54;20971;-73
2023/12/14 05:51:30;;;;;;;2.92;1.08;;;11.80;74.20;;;;;;2295837;55;21061;-72
2023/12/14 05:53:57;;;;;;;1.80;0.82;;;11.80;74.10;;;;;;2529488;54;20955;-72
2023/12/14 05:56:24;;;;;;;3.17;1.00;;;11.80;74.10;;;;;;2298704;55;20940;-71
2023/12/14 05:58:51;;;;;;;2.22;0.90;;;11.80;74.10;;;;;;2260194;55;20958;-72
2023/12/14 06:01:22;;;;;;;1.75;0.80;;;11.80;74.20;;;;;;2534026;54;20967;-72
2023/12/14 06:03:51;;;;;;;2.20;0.95;;;11.80;74.10;;;;;;2298557;56;20984;-72
2023/12/14 06:06:19;;;;;;;1.85;0.82;;;11.80;74.10;;;;;;2535104;54;20931;-72
2023/12/14 06:08:48;;;;;;;2.28;1.10;;;11.80;74.10;;;;;;2534356;54;20975;-72
2023/12/14 06:11:15;;;;;;;2.70;1.10;;;11.80;74.10;;;;;;2298010;56;20999;-72
2023/12/14 06:13:43;;;;;;;2.28;0.93;;;11.80;74.10;;;;;;2296554;55;21044;-69
2023/12/14 06:16:12;;;;;;;2.85;0.90;;;11.80;74.10;;;;;;2528188;54;21401;-68
2023/12/14 06:18:42;;;;;;;3.22;1.37;;;11.80;74.10;;;;;;2292721;55;20935;-67
2023/12/14 06:21:12;;;;;;;4.93;2.25;;;11.80;74.10;;;;;;2286931;56;21059;-69
2023/12/14 06:23:39;;;;;;;4.28;2.03;;;11.80;74.10;;;;;;2477629;54;20982;-69
2023/12/14 06:26:06;;;;;;;4.40;2.03;;;11.80;74.70;;;;;;2284586;56;21023;-68
2023/12/14 06:28:33;;;;;;;4.80;2.03;;;11.80;74.00;;;;;;2284560;56;20959;-69
2023/12/14 06:31:02;;;;;;;3.10;1.27;;;11.80;73.90;;;;;;2520295;54;21063;-68
2023/12/14 06:33:31;;;;;;;3.12;1.30;;;11.80;74.00;;;;;;2285841;55;20976;-69
2023/12/14 06:35:57;;;;;;;3.05;1.33;;;11.80;74.10;;;;;;2285295;56;21553;-68
2023/12/14 06:38:27;;;;;;;3.30;1.48;;;11.80;74.00;;;;;;2283895;56;20948;-68
2023/12/14 06:40:54;;;;;;;2.95;1.48;;;11.80;74.00;;;;;;2282266;56;20971;-68
2023/12/14 06:43:26;;;;;;;5.22;2.83;;;11.80;74.00;;;;;;2283806;55;20998;-67
2023/12/14 06:45:53;;;;;;;8.52;4.65;;;11.80;74.00;;;;;;2520717;54;21090;-69
2023/12/14 06:48:20;;;;;;;10.38;7.28;;;11.80;74.00;;;;;;2508289;54;20964;-69
2023/12/14 06:50:47;;;;;;;7.72;4.65;;;11.80;73.90;;;;;;2286368;55;21343;-69
2023/12/14 06:53:15;;;;;;;8.55;5.25;;;11.80;73.90;;;;;;2271847;56;20985;-69
2023/12/14 06:55:42;;;;;;;7.25;4.35;;;11.80;73.90;;;;;;2269446;55;20979;-70
2023/12/14 06:58:11;;;;;;;6.25;3.15;;;11.80;73.80;;;;;;2287706;55;20944;-69
2023/12/14 07:00:38;;;;;;;4.22;2.70;;;11.70;73.70;;;;;;2521188;54;20992;-71
2023/12/14 07:03:05;;;;;;;3.87;2.20;;;11.80;73.80;;;;;;2288065;56;20982;-71
2023/12/14 07:05:32;;;;;;;3.58;1.85;;;11.80;73.80;;;;;;2288815;55;20971;-71
2023/12/14 07:07:59;;;;;;;3.35;1.95;;;11.70;73.80;;;;;;2526205;54;21448;-70
2023/12/14 07:10:26;;;;;;;4.70;2.30;;;11.70;73.80;;;;;;2293039;55;21500;-69
2023/12/14 07:12:52;;;;;;;4.43;1.87;;;11.70;73.90;;;;;;2291591;56;20924;-69
2023/12/14 07:15:19;;;;;;;3.50;1.75;;;11.70;74.00;;;;;;2516585;54;21040;-70
2023/12/14 07:17:45;;;;;;;2.78;1.50;;;11.70;74.00;;;;;;2295891;55;21003;-69
2023/12/14 07:20:13;;;;;;;2.85;1.27;;;11.70;74.10;;;;;;2283515;55;20931;-68
2023/12/14 07:22:39;;;;;;;3.22;1.40;;;11.70;74.10;;;;;;2295620;56;20983;-70
2023/12/14 07:25:08;;;;;;;2.72;1.20;;;11.70;74.10;;;;;;2515022;54;21315;-70
2023/12/14 07:27:34;;;;;;;2.60;1.40;;;11.70;74.20;;;;;;2294617;55;21275;-69
2023/12/14 07:30:01;;;;;;;2.70;1.40;;;11.70;74.20;;;;;;2519858;54;21083;-70
2023/12/14 07:32:29;;;;;;;3.08;1.45;;;11.70;74.20;;;;;;2293588;54;20967;-69
2023/12/14 07:34:56;;;;;;;2.37;1.15;;;11.80;74.30;;;;;;2292536;56;20955;-69
2023/12/14 07:37:22;;;;;;;2.60;1.35;;;11.80;74.30;;;;;;2292490;54;21044;-70
2023/12/14 07:40:00;;;;;;;2.10;1.00;;;11.80;74.30;;;;;;2528124;54;20951;-70
2023/12/14 07:42:26;;;;;;;3.33;1.37;;;11.80;74.20;;;;;;2292143;55;20940;-70
2023/12/14 07:44:54;;;;;;;4.37;2.40;;;11.80;74.30;;;;;;2292203;55;20951;-70
2023/12/14 07:47:20;;;;;;;6.65;4.05;;;11.80;74.30;;;;;;2290290;56;22045;-67
2023/12/14 07:49:48;;;;;;;4.55;2.40;;;11.90;74.30;;;;;;2291218;56;20996;-70
2023/12/14 07:52:14;;;;;;;4.78;2.85;;;11.80;74.20;;;;;;2521985;54;20977;-70
2023/12/14 07:54:41;;;;;;;3.85;2.05;;;11.80;74.20;;;;;;2278551;55;21532;-68
2023/12/14 07:57:08;;;;;;;3.80;1.75;;;11.80;74.10;;;;;;2529530;54;21488;-69
2023/12/14 07:59:36;;;;;;;3.45;1.60;;;11.80;74.10;;;;;;2292973;56;21492;-69
2023/12/14 08:02:05;;;;;;;5.43;1.52;;;11.80;74.20;;;;;;2295282;55;20983;-70
2023/12/14 08:04:33;;;;;;;4.15;1.70;;;11.80;74.20;;;;;;2293755;56;21082;-69
2023/12/14 08:07:03;;;;;;;2.90;1.30;;;11.80;74.20;;;;;;2530934;54;21032;-69
2023/12/14 08:09:33;;;;;;;2.65;1.15;;;11.80;74.20;;;;;;2529328;54;21087;-70
2023/12/14 08:11:59;;;;;;;2.72;0.95;;;11.80;74.20;;;;;;2293059;55;21077;-68
2023/12/14 08:14:26;;;;;;;2.65;1.27;;;11.80;74.30;;;;;;2532017;54;20939;-70
2023/12/14 08:16:52;;;;;;;3.08;1.25;;;11.80;74.30;;;;;;2530474;54;21746;-70
2023/12/14 08:19:19;;;;;;;3.15;1.27;;;11.80;74.30;;;;;;2483553;55;21404;-72
2023/12/14 08:21:46;;;;;;;3.83;1.67;;;11.80;74.30;;;;;;2482186;55;21908;-69
2023/12/14 08:24:13;;;;;;;4.68;2.40;;;11.80;74.30;;;;;;2254008;56;21021;-68
2023/12/14 08:26:40;;;;;;;4.87;2.50;;;11.80;74.30;;;;;;2254377;55;20974;-70
2023/12/14 08:29:06;;;;;;;5.60;3.15;;;11.80;74.40;;;;;;2253467;56;20994;-69
2023/12/14 08:31:32;;;;;;;7.22;2.92;;;11.80;74.20;;;;;;2481008;55;22040;-69
2023/12/14 08:33:59;;;;;;;4.45;2.45;;;11.80;74.30;;;;;;2483942;55;21404;-70
2023/12/14 08:36:26;;;;;;;3.35;1.73;;;11.80;74.30;;;;;;2260895;56;20999;-69
2023/12/14 08:38:53;;;;;;;5.82;2.35;;;11.90;74.50;;;;;;2497930;55;21112;-68
2023/12/14 08:41:19;;;;;;;3.58;2.05;;;11.80;74.40;;;;;;2264588;56;21547;-69
2023/12/14 08:43:49;;;;;;;4.95;3.15;;;11.90;74.50;;;;;;2263420;55;20958;-70
2023/12/14 08:46:15;;;;;;;4.75;2.58;;;11.90;74.40;;;;;;2467683;54;21074;-68
2023/12/14 08:48:42;;;;;;;4.87;2.40;;;11.90;74.40;;;;;;2255656;55;20990;-70
2023/12/14 08:51:09;;;;;;;5.10;2.60;;;11.90;74.40;;;;;;2500830;55;21485;-70
2023/12/14 08:53:35;;;;;;;7.00;3.70;;;11.90;74.40;;;;;;2488649;54;20967;-69
2023/12/14 08:56:03;;;;;;;7.65;3.87;;;11.90;74.40;;;;;;2445442;55;20982;-70
2023/12/14 08:58:30;;;;;;;16.30;7.68;;;11.90;74.40;;;;;;2245436;55;21468;-71
2023/12/14 09:00:59;;;;;;;10.88;5.68;;;11.90;74.40;;;;;;2483484;55;21624;-69
2023/12/14 09:03:26;;;;;;;8.63;5.22;;;11.90;74.30;;;;;;2478228;55;21674;-69
2023/12/14 09:05:52;;;;;;;7.47;3.75;;;11.90;74.30;;;;;;2494011;54;21099;-69
2023/12/14 09:08:20;;;;;;;6.00;3.28;;;11.90;74.20;;;;;;2256326;55;21725;-70
2023/12/14 09:10:49;;;;;;;6.57;3.55;;;11.90;74.10;;;;;;2255940;56;21543;-70
2023/12/14 09:13:17;;;;;;;9.63;5.28;;;11.90;74.20;;;;;;2249085;55;21433;-70
2023/12/14 09:15:47;;;;;;;10.38;6.00;;;11.90;74.10;;;;;;2482619;55;21118;-68
2023/12/14 09:18:16;;;;;;;12.05;7.75;;;11.90;74.20;;;;;;2253203;55;21018;-70
2023/12/14 09:20:43;;;;;;;11.68;7.57;;;11.90;74.20;;;;;;2250109;55;20970;-69
2023/12/14 09:23:19;;;;;;;10.95;7.07;;;11.90;74.30;;;;;;2481843;55;21022;-68
2023/12/14 09:25:46;;;;;;;9.10;6.12;;;11.90;74.20;;;;;;2500111;54;20955;-71
2023/12/14 09:28:16;;;;;;;9.57;6.32;;;11.90;74.40;;;;;;2254461;56;21991;-70
2023/12/14 09:30:42;;;;;;;8.30;5.68;;;11.90;74.40;;;;;;2488730;55;21522;-69
2023/12/14 09:33:12;;;;;;;8.20;5.35;;;11.90;74.50;;;;;;2254715;55;21003;-67
2023/12/14 09:35:41;;;;;;;26.02;13.20;;;11.90;74.50;;;;;;2253673;55;20950;-70
2023/12/14 09:38:10;;;;;;;23.62;13.10;;;12.00;74.70;;;;;;2253558;55;21010;-70
2023/12/14 09:40:37;;;;;;;19.62;10.65;;;11.90;74.70;;;;;;2252313;55;21536;-68
2023/12/14 09:43:03;;;;;;;17.00;9.55;;;12.00;74.70;;;;;;2248853;55;21034;-69
2023/12/14 09:45:31;;;;;;;11.77;7.12;;;12.00;74.80;;;;;;2236221;55;21830;-67
2023/12/14 09:48:00;;;;;;;10.45;6.50;;;12.00;74.80;;;;;;2215440;56;21510;-70
2023/12/14 09:50:27;;;;;;;10.93;6.72;;;12.00;74.80;;;;;;2242282;56;22020;-70
2023/12/14 09:52:53;;;;;;;10.25;6.22;;;12.10;74.90;;;;;;2496077;54;21508;-70
2023/12/14 09:55:20;;;;;;;7.62;4.70;;;12.10;74.90;;;;;;2484590;54;21535;-70
2023/12/14 09:57:46;;;;;;;7.22;4.47;;;12.10;74.80;;;;;;2257668;56;20954;-71
2023/12/14 10:00:14;;;;;;;6.20;3.95;;;12.10;74.80;;;;;;2478946;55;21921;-69
2023/12/14 10:02:41;;;;;;;6.25;3.97;;;12.10;74.80;;;;;;2258059;56;22359;-68
2023/12/14 10:05:11;;;;;;;5.07;3.30;;;12.10;74.80;;;;;;2251111;55;21703;-69
2023/12/14 10:07:43;;;;;;;5.70;3.33;;;12.10;74.80;;;;;;2482807;55;20979;-69
2023/12/14 10:10:11;;;;;;;4.90;3.12;;;12.20;74.80;;;;;;2251322;55;21468;-69
2023/12/14 10:12:53;;;;;;;5.22;2.70;;;12.20;74.80;;;;;;2251119;55;21453;-70
2023/12/14 10:15:23;;;;;;;4.45;2.70;;;12.20;74.40;;;;;;2216814;56;21674;-68
2023/12/14 10:17:54;;;;;;;4.70;2.60;;;12.20;74.60;;;;;;2255871;56;21023;-68
2023/12/14 10:20:21;;;;;;;4.05;2.30;;;12.20;74.70;;;;;;2462640;54;20955;-70
2023/12/14 10:22:51;;;;;;;4.40;2.60;;;12.30;74.80;;;;;;2477961;55;20990;-70
2023/12/14 10:25:21;;;;;;;7.57;2.83;;;12.30;74.90;;;;;;2251435;56;21595;-71
2023/12/14 10:27:48;;;;;;;5.47;2.67;;;12.30;74.80;;;;;;2247648;56;20985;-69
2023/12/14 10:30:16;;;;;;;4.07;2.47;;;12.30;74.90;;;;;;2477875;55;20982;-68
2023/12/14 10:32:42;;;;;;;5.43;2.92;;;12.30;74.90;;;;;;2245216;55;21073;-69
2023/12/14 10:35:08;;;;;;;5.15;2.80;;;12.30;74.90;;;;;;2215372;56;21359;-69
2023/12/14 10:37:37;;;;;;;4.35;2.70;;;12.40;75.00;;;;;;2250318;56;21540;-70
2023/12/14 10:40:05;;;;;;;4.37;2.75;;;12.40;75.00;;;;;;2248455;56;21447;-70
2023/12/14 10:42:32;;;;;;;6.00;3.58;;;12.30;74.70;;;;;;2479631;54;20950;-68
2023/12/14 10:44:58;;;;;;;7.40;4.37;;;12.40;74.60;;;;;;2477815;54;20955;-70
2023/12/14 10:47:25;;;;;;;7.50;5.15;;;12.40;74.50;;;;;;2249981;56;21078;-70
2023/12/14 10:49:52;;;;;;;6.28;4.12;;;12.40;74.50;;;;;;2479566;55;21093;-70
2023/12/14 10:52:19;;;;;;;5.05;3.00;;;12.40;74.50;;;;;;2256638;55;21460;-69
2023/12/14 10:54:47;;;;;;;4.80;3.00;;;12.40;74.50;;;;;;2249235;56;21011;-69
2023/12/14 10:57:14;;;;;;;4.30;2.62;;;12.40;74.50;;;;;;2228596;56;21497;-69
2023/12/14 10:59:42;;;;;;;4.70;2.30;;;12.40;74.50;;;;;;2253149;56;20953;-68
2023/12/14 11:02:15;;;;;;;6.82;2.28;;;12.40;74.40;;;;;;2252733;56;21836;-69
2023/12/14 11:06:36;;;;;;;3.70;2.22;;;12.40;74.50;;;;;;2252975;56;21022;-69
2023/12/14 11:09:06;;;;;;;5.00;2.42;;;12.50;73.90;;;;;;2256573;56;21043;-70
2023/12/14 11:12:01;;;;;;;5.53;2.95;;;12.50;74.70;;;;;;2477627;55;21467;-70
2023/12/14 11:14:27;;;;;;;6.60;4.15;;;12.40;74.50;;;;;;2253120;55;20961;-69
2023/12/14 11:16:57;;;;;;;11.20;5.68;;;12.50;74.80;;;;;;2252362;56;20962;-68
2023/12/14 11:19:26;;;;;;;10.07;5.28;;;12.50;74.80;;;;;;2479092;55;21030;-70
2023/12/14 11:22:12;;;;;;;11.02;5.45;;;12.50;74.90;;;;;;2225296;56;21506;-70
2023/12/14 11:24:42;;;;;;;14.05;7.90;;;12.50;74.60;;;;;;2251115;55;21490;-68
2023/12/14 11:27:09;;;;;;;14.77;7.32;;;12.50;74.90;;;;;;2484417;55;21026;-70
2023/12/14 11:29:41;;;;;;;10.00;5.40;;;12.60;75.00;;;;;;2475998;55;21046;-71
2023/12/14 11:32:08;;;;;;;6.15;3.90;;;12.60;74.90;;;;;;2459194;54;21053;-68
2023/12/14 11:34:34;;;;;;;7.22;3.83;;;12.60;74.80;;;;;;2250484;56;21010;-69
2023/12/14 11:37:01;;;;;;;5.93;3.60;;;12.60;74.90;;;;;;2477812;54;21951;-68
2023/12/14 11:39:31;;;;;;;7.60;3.37;;;12.60;74.90;;;;;;2252326;56;20987;-69
2023/12/14 11:42:02;;;;;;;4.62;2.62;;;12.60;74.90;;;;;;2253834;56;21006;-69
2023/12/14 11:44:28;;;;;;;5.32;2.62;;;12.70;75.00;;;;;;2252088;55;21545;-70
2023/12/14 11:46:56;;;;;;;5.50;2.65;;;12.70;75.10;;;;;;2491247;54;20944;-69
2023/12/14 11:49:29;;;;;;;4.53;2.70;;;12.70;75.10;;;;;;2253763;56;21051;-68
2023/12/14 11:51:55;;;;;;;5.25;3.12;;;12.70;75.00;;;;;;2242660;54;21553;-69
2023/12/14 11:54:21;;;;;;;5.78;3.30;;;12.70;74.90;;;;;;2479192;55;20959;-68
2023/12/14 11:56:50;;;;;;;4.03;2.45;;;12.80;75.00;;;;;;2254512;55;21008;-70
2023/12/14 11:59:20;;;;;;;4.10;2.47;;;12.80;75.00;;;;;;2481587;54;20965;-68
2023/12/14 12:02:00;;;;;;;5.28;2.95;;;12.80;75.00;;;;;;2254070;55;21070;-68
2023/12/14 12:04:26;;;;;;;4.07;2.50;;;12.80;74.70;;;;;;2464707;55;21036;-69
2023/12/14 12:07:01;;;;;;;5.05;2.62;;;12.80;74.80;;;;;;2473172;54;21025;-70
2023/12/14 12:09:38;;;;;;;4.03;2.55;;;12.80;74.70;;;;;;2247509;55;21023;-70
2023/12/14 12:12:08;;;;;;;5.68;2.55;;;12.90;74.80;;;;;;2276207;55;20992;-70
2023/12/14 12:14:37;;;;;;;4.00;2.75;;;12.90;74.90;;;;;;2255421;56;20982;-70
2023/12/14 12:17:10;;;;;;;3.80;2.40;;;12.90;75.80;;;;;;2259865;56;21469;-69
2023/12/14 12:19:37;;;;;;;4.80;2.62;;;12.90;75.10;;;;;;2258719;55;20954;-68
2023/12/14 12:22:04;;;;;;;4.78;2.80;;;12.90;75.10;;;;;;2265809;55;20979;-68
2023/12/14 12:24:30;;;;;;;4.28;2.62;;;13.00;75.20;;;;;;2262120;56;20997;-68
2023/12/14 12:26:57;;;;;;;3.40;2.20;;;12.90;75.10;;;;;;2256479;56;20987;-69
2023/12/14 12:29:23;;;;;;;4.18;2.47;;;13.00;75.20;;;;;;2256040;56;21034;-70
2023/12/14 12:31:49;;;;;;;3.95;2.25;;;13.00;75.20;;;;;;2254619;56;21014;-70
2023/12/14 12:34:16;;;;;;;5.40;2.90;;;13.00;75.20;;;;;;2481845;54;21287;-69
2023/12/14 12:36:42;;;;;;;4.45;2.78;;;13.10;75.30;;;;;;2253605;56;21218;-70
2023/12/14 12:39:11;;;;;;;4.00;2.40;;;13.10;75.20;;;;;;2468449;55;21027;-69
2023/12/14 12:41:39;;;;;;;4.37;2.50;;;13.10;75.10;;;;;;2249406;55;21005;-69
2023/12/14 12:44:06;;;;;;;4.62;2.42;;;13.10;75.10;;;;;;2223172;56;22149;-68
2023/12/14 12:46:36;;;;;;;3.72;2.30;;;13.10;75.00;;;;;;2476774;55;20999;-69
2023/12/14 12:49:04;;;;;;;4.62;2.58;;;13.20;74.80;;;;;;2253627;56;20959;-70
2023/12/14 12:51:32;;;;;;;4.10;2.42;;;13.10;74.60;;;;;;2254227;56;21458;-70